Time;durP1;ratioP1;P1;durP2;ratioP2;P2;SDS_P1;SDS_P2;PMS_P1;PMS_P2;Temp;Humidity;BMP_temperature;BMP_pressure;BME280_temperature;BME280_humidity;BME280_pressure;Samples;Min_cycle;Max_cycle;Signal;HPM_P1;HPM_P2
2022/04/17 00:02:05;;;;;;;3.97;2.77;;;6.20;99.90;;;;;;5094414;28;20678;-44
2022/04/17 00:04:31;;;;;;;3.80;2.50;;;6.10;99.90;;;;;;5093899;28;20636;-42
2022/04/17 00:06:57;;;;;;;3.73;2.53;;;6.00;99.90;;;;;;5093617;28;20205;-44
2022/04/17 00:09:23;;;;;;;4.00;2.93;;;6.00;99.90;;;;;;5093854;28;20213;-43
2022/04/17 00:11:48;;;;;;;6.37;2.90;;;6.00;99.90;;;;;;5094011;28;20170;-43
2022/04/17 00:14:14;;;;;;;3.77;2.77;;;5.90;99.90;;;;;;5093714;28;20175;-41
2022/04/17 00:16:40;;;;;;;4.47;2.40;;;6.00;99.90;;;;;;5093675;28;20193;-42
2022/04/17 00:19:09;;;;;;;5.27;2.80;;;5.90;99.90;;;;;;5093680;28;20643;-42
2022/04/17 00:21:35;;;;;;;3.67;2.77;;;5.90;99.90;;;;;;5093850;28;20557;-42
2022/04/17 00:24:00;;;;;;;4.43;2.70;;;5.90;99.90;;;;;;5093779;28;20265;-43
2022/04/17 00:26:26;;;;;;;4.33;2.77;;;5.90;99.90;;;;;;5093735;28;20206;-42
2022/04/17 00:28:52;;;;;;;5.40;2.47;;;5.90;99.90;;;;;;5093679;28;20292;-42
2022/04/17 00:31:17;;;;;;;4.17;3.10;;;5.80;99.90;;;;;;5093021;28;20180;-42
2022/04/17 00:33:43;;;;;;;3.83;2.40;;;5.70;99.90;;;;;;5093615;28;20182;-43
2022/04/17 00:36:08;;;;;;;4.70;3.07;;;5.70;99.90;;;;;;5093469;28;20192;-42
2022/04/17 00:38:34;;;;;;;5.70;2.70;;;5.70;99.90;;;;;;5093372;28;20178;-42
2022/04/17 00:41:00;;;;;;;3.67;2.70;;;5.60;99.90;;;;;;5093429;28;20179;-42
2022/04/17 00:43:30;;;;;;;4.40;2.60;;;5.60;99.90;;;;;;5093387;28;20233;-43
2022/04/17 00:45:56;;;;;;;4.90;2.50;;;5.60;99.90;;;;;;5093554;28;20201;-43
2022/04/17 00:48:22;;;;;;;3.70;2.87;;;5.60;99.90;;;;;;5093406;28;20253;-43
2022/04/17 00:50:51;;;;;;;4.33;2.70;;;5.60;99.90;;;;;;5093247;28;20174;-41
2022/04/17 00:53:18;;;;;;;3.47;2.70;;;5.50;99.90;;;;;;5093414;28;20188;-40
2022/04/17 00:55:46;;;;;;;3.20;2.80;;;5.50;99.90;;;;;;5093130;28;20653;-43
2022/04/17 00:58:13;;;;;;;3.23;2.57;;;5.40;99.90;;;;;;5093496;28;20185;-41
2022/04/17 01:00:40;;;;;;;3.57;2.33;;;5.40;99.90;;;;;;5093791;28;20167;-41
2022/04/17 01:03:06;;;;;;;6.90;2.90;;;5.30;99.90;;;;;;5093133;28;20178;-42
2022/04/17 01:05:32;;;;;;;5.93;3.17;;;5.30;99.90;;;;;;5093062;28;20543;-44
2022/04/17 01:07:58;;;;;;;4.10;2.60;;;5.20;99.90;;;;;;5092856;28;20216;-41
2022/04/17 01:10:24;;;;;;;5.00;2.80;;;5.20;99.90;;;;;;5093619;28;20696;-42
2022/04/17 01:12:58;;;;;;;5.47;3.03;;;5.20;99.90;;;;;;5093035;28;20190;-41
2022/04/17 01:15:24;;;;;;;4.73;2.73;;;5.10;99.90;;;;;;5093371;28;20168;-41
2022/04/17 01:17:49;;;;;;;4.97;3.03;;;5.20;99.90;;;;;;5092979;28;20568;-41
2022/04/17 01:20:16;;;;;;;4.77;3.00;;;5.20;99.90;;;;;;5093009;28;20192;-41
2022/04/17 01:22:47;;;;;;;6.30;3.13;;;5.20;99.90;;;;;;5093279;28;20573;-42
2022/04/17 01:27:57;;;;;;;3.07;2.50;;;5.20;99.90;;;;;;5093206;28;20606;-41
2022/04/17 01:30:22;;;;;;;4.53;3.00;;;5.20;99.90;;;;;;5092856;28;20177;-40
2022/04/17 01:32:48;;;;;;;3.73;2.40;;;5.20;99.90;;;;;;5092824;28;20542;-42
2022/04/17 01:35:13;;;;;;;5.03;3.00;;;5.30;99.90;;;;;;5093172;28;20184;-41
2022/04/17 01:37:39;;;;;;;4.67;2.77;;;5.40;99.90;;;;;;5093051;28;20204;-42
2022/04/17 01:40:05;;;;;;;3.93;2.70;;;5.40;99.90;;;;;;5092844;28;20176;-41
2022/04/17 01:42:31;;;;;;;3.93;2.73;;;5.50;99.90;;;;;;5093159;28;20181;-41
2022/04/17 01:44:57;;;;;;;3.93;2.47;;;5.50;99.90;;;;;;5096472;28;20183;-43
2022/04/17 01:47:23;;;;;;;2.60;2.23;;;5.60;99.90;;;;;;5096587;28;20215;-42
2022/04/17 01:49:48;;;;;;;3.17;2.63;;;5.60;99.90;;;;;;5096412;28;20176;-41
2022/04/17 01:52:14;;;;;;;2.70;2.40;;;5.70;99.90;;;;;;5096946;28;20178;-42
2022/04/17 01:54:40;;;;;;;7.27;2.67;;;5.60;99.90;;;;;;5096336;28;20260;-42
2022/04/17 01:57:05;;;;;;;5.17;3.07;;;5.60;99.90;;;;;;5096467;28;20706;-43
2022/04/17 01:59:31;;;;;;;5.23;2.70;;;5.60;99.90;;;;;;5096416;28;20176;-42
2022/04/17 02:01:57;;;;;;;5.27;3.03;;;5.60;99.90;;;;;;5096184;28;20171;-41
2022/04/17 02:04:26;;;;;;;6.50;2.50;;;5.60;99.90;;;;;;5096337;28;20262;-42
2022/04/17 02:06:52;;;;;;;4.27;2.80;;;5.60;99.90;;;;;;5095851;28;20300;-41
2022/04/17 02:09:18;;;;;;;3.80;2.60;;;5.50;99.90;;;;;;5095914;28;20292;-42
2022/04/17 02:11:45;;;;;;;3.80;2.73;;;5.50;99.90;;;;;;5096521;28;20208;-39
2022/04/17 02:14:12;;;;;;;4.37;2.63;;;5.50;99.90;;;;;;5095959;28;20544;-42
2022/04/17 02:16:38;;;;;;;5.50;2.77;;;5.50;99.90;;;;;;5095900;28;20187;-42
2022/04/17 02:19:04;;;;;;;4.30;2.70;;;5.50;99.90;;;;;;5096176;28;20237;-42
2022/04/17 02:21:31;;;;;;;4.97;2.77;;;5.50;99.90;;;;;;5095850;28;20177;-42
2022/04/17 02:23:57;;;;;;;3.60;2.80;;;5.50;99.90;;;;;;5095730;28;20199;-42
2022/04/17 02:26:22;;;;;;;4.43;2.80;;;5.40;99.90;;;;;;5095595;28;20287;-42
2022/04/17 02:28:48;;;;;;;3.20;2.90;;;5.30;99.90;;;;;;5095824;28;20301;-43
2022/04/17 02:31:16;;;;;;;4.63;2.93;;;5.20;99.90;;;;;;5095584;28;20180;-42
2022/04/17 02:33:41;;;;;;;2.87;2.57;;;5.10;99.90;;;;;;5095566;28;20659;-41
2022/04/17 02:36:07;;;;;;;4.03;3.10;;;5.00;99.90;;;;;;5095721;28;20200;-40
2022/04/17 02:38:33;;;;;;;4.50;2.87;;;5.00;99.90;;;;;;5095480;28;20556;-43
2022/04/17 02:40:59;;;;;;;4.93;3.67;;;4.90;99.90;;;;;;5095651;28;20172;-42
2022/04/17 02:43:24;;;;;;;4.77;3.13;;;4.90;99.90;;;;;;5095501;28;20182;-43
2022/04/17 02:45:51;;;;;;;6.87;3.10;;;4.80;99.90;;;;;;5095322;28;20243;-42
2022/04/17 02:48:16;;;;;;;4.77;3.20;;;4.80;99.90;;;;;;5095423;28;20605;-40
2022/04/17 02:50:42;;;;;;;6.37;2.90;;;4.80;99.90;;;;;;5095355;28;20216;-41
2022/04/17 02:53:08;;;;;;;5.07;3.27;;;4.80;99.90;;;;;;5093995;28;20176;-41
2022/04/17 02:55:33;;;;;;;5.47;3.13;;;4.70;99.90;;;;;;5076634;28;20174;-42
2022/04/17 02:57:59;;;;;;;4.13;2.80;;;4.80;99.90;;;;;;5095346;28;20203;-41
2022/04/17 03:00:26;;;;;;;3.97;2.73;;;4.70;99.90;;;;;;5095246;28;20602;-40
2022/04/17 03:05:37;;;;;;;3.33;2.80;;;4.70;99.90;;;;;;5094888;28;20169;-40
2022/04/17 03:08:09;;;;;;;3.80;3.00;;;4.70;99.90;;;;;;5094727;28;20215;-42
2022/04/17 03:10:37;;;;;;;4.37;3.00;;;4.60;99.90;;;;;;5095112;28;20183;-41
2022/04/17 03:13:04;;;;;;;4.60;3.00;;;4.60;99.90;;;;;;5093783;28;20225;-40
2022/04/17 03:15:34;;;;;;;3.67;3.03;;;4.60;99.90;;;;;;5094734;28;20174;-40
2022/04/17 03:18:00;;;;;;;2.97;2.63;;;4.60;99.90;;;;;;5094913;28;20248;-41
2022/04/17 03:20:28;;;;;;;2.97;2.53;;;4.60;99.90;;;;;;5094633;28;20258;-41
2022/04/17 03:22:55;;;;;;;3.17;2.70;;;4.60;99.90;;;;;;5093384;28;20184;-42
2022/04/17 03:25:21;;;;;;;4.53;2.80;;;4.60;99.90;;;;;;5094786;28;20180;-41
2022/04/17 03:27:47;;;;;;;3.43;2.90;;;4.70;99.90;;;;;;5094295;28;20230;-41
2022/04/17 03:30:17;;;;;;;5.07;2.83;;;4.70;99.90;;;;;;5094652;28;20224;-42
2022/04/17 03:32:44;;;;;;;4.23;2.83;;;4.70;99.90;;;;;;5094419;28;20168;-41
2022/04/17 03:35:11;;;;;;;3.47;2.90;;;4.80;99.90;;;;;;5094333;28;20180;-42
2022/04/17 03:37:37;;;;;;;3.90;2.60;;;4.80;99.90;;;;;;5094334;28;20293;-42
2022/04/17 03:40:04;;;;;;;6.00;2.70;;;4.80;99.90;;;;;;5094285;28;20258;-41
2022/04/17 03:42:29;;;;;;;4.97;2.90;;;4.80;99.90;;;;;;5094469;28;20175;-41
2022/04/17 03:44:55;;;;;;;5.27;2.57;;;4.80;99.90;;;;;;5094507;28;20175;-39
2022/04/17 03:47:21;;;;;;;4.70;2.80;;;4.80;99.90;;;;;;5093975;28;20199;-42
2022/04/17 03:49:47;;;;;;;3.13;2.73;;;4.70;99.90;;;;;;5094127;28;20175;-42
2022/04/17 03:52:13;;;;;;;5.80;3.03;;;4.70;99.90;;;;;;5094061;28;20198;-40
2022/04/17 03:54:38;;;;;;;5.37;3.20;;;4.70;99.90;;;;;;5094095;28;20187;-41
2022/04/17 03:57:04;;;;;;;9.93;3.23;;;4.70;99.90;;;;;;5093873;28;20194;-43
2022/04/17 03:59:31;;;;;;;4.83;3.27;;;4.70;99.90;;;;;;5093932;28;20178;-42
2022/04/17 04:01:58;;;;;;;5.10;3.50;;;4.70;99.90;;;;;;5094166;28;20243;-42
2022/04/17 04:04:23;;;;;;;8.13;3.30;;;4.60;99.90;;;;;;5093815;28;20244;-42
2022/04/17 04:06:50;;;;;;;5.23;3.70;;;4.60;99.90;;;;;;5093626;28;20711;-42
2022/04/17 04:09:16;;;;;;;3.90;3.33;;;4.50;99.90;;;;;;5093927;28;20192;-43
2022/04/17 04:11:44;;;;;;;5.33;3.80;;;4.50;99.90;;;;;;5093728;28;20232;-43
2022/04/17 04:14:10;;;;;;;5.43;3.30;;;4.50;99.90;;;;;;5093780;28;20202;-41
2022/04/17 04:16:36;;;;;;;5.80;3.63;;;4.40;99.90;;;;;;5093536;28;20191;-41
2022/04/17 04:19:05;;;;;;;4.30;3.63;;;4.40;99.90;;;;;;5093758;28;20702;-41
2022/04/17 04:21:31;;;;;;;4.10;3.20;;;4.30;99.90;;;;;;5093601;28;20228;-40
2022/04/17 04:23:56;;;;;;;4.53;3.77;;;4.30;99.90;;;;;;5093577;28;20308;-41
2022/04/17 04:26:22;;;;;;;4.67;3.40;;;4.20;99.90;;;;;;5093494;28;20715;-42
2022/04/17 04:28:47;;;;;;;6.80;3.53;;;4.20;99.90;;;;;;5093391;28;20642;-41
2022/04/17 04:31:14;;;;;;;4.07;3.50;;;4.20;99.90;;;;;;5093773;28;20182;-41
2022/04/17 04:33:42;;;;;;;3.37;2.90;;;4.20;99.90;;;;;;5093537;28;20171;-42
2022/04/17 04:36:11;;;;;;;4.17;3.70;;;4.10;99.90;;;;;;5093792;28;20252;-42
2022/04/17 04:38:37;;;;;;;5.43;3.47;;;4.20;99.90;;;;;;5093475;28;20179;-39
2022/04/17 04:41:03;;;;;;;6.03;3.57;;;4.10;99.90;;;;;;5092957;28;20183;-42
2022/04/17 04:43:28;;;;;;;4.47;3.67;;;4.10;99.90;;;;;;5093444;28;20195;-42
2022/04/17 04:46:06;;;;;;;5.67;3.70;;;4.00;99.90;;;;;;5093493;28;20209;-43
2022/04/17 04:51:21;;;;;;;4.90;3.90;;;4.00;99.90;;;;;;5093924;28;20178;-41
2022/04/17 04:53:46;;;;;;;4.87;3.73;;;3.90;99.90;;;;;;5093507;28;20183;-39
2022/04/17 04:56:18;;;;;;;5.17;3.70;;;3.90;99.90;;;;;;5093408;28;20567;-43
2022/04/17 04:58:44;;;;;;;5.37;4.03;;;3.80;99.90;;;;;;5091985;28;20183;-39
2022/04/17 05:01:10;;;;;;;6.93;3.77;;;3.80;99.90;;;;;;5093148;28;20533;-41
2022/04/17 05:03:36;;;;;;;4.77;3.53;;;3.80;99.90;;;;;;5092996;28;20612;-41
2022/04/17 05:06:02;;;;;;;5.13;3.47;;;3.80;99.90;;;;;;5093540;28;20248;-41
2022/04/17 05:08:27;;;;;;;5.20;3.50;;;3.70;99.90;;;;;;5092881;28;20237;-41
2022/04/17 05:10:53;;;;;;;6.13;3.63;;;3.70;99.90;;;;;;5093056;28;20186;-41
2022/04/17 05:13:19;;;;;;;5.00;3.87;;;3.70;99.90;;;;;;5093121;28;20266;-40
2022/04/17 05:15:45;;;;;;;5.17;3.67;;;3.70;99.90;;;;;;5092942;28;20605;-42
2022/04/17 05:18:11;;;;;;;4.43;3.23;;;3.80;99.90;;;;;;5094654;28;20521;-42
2022/04/17 05:20:36;;;;;;;7.77;3.43;;;3.80;99.90;;;;;;5096997;28;20226;-40
2022/04/17 05:23:22;;;;;;;3.77;3.13;;;3.90;99.90;;;;;;5096956;28;20183;-39
2022/04/17 05:25:50;;;;;;;5.47;3.47;;;4.00;99.90;;;;;;5096846;28;20170;-40
2022/04/17 05:28:17;;;;;;;5.73;3.27;;;4.00;99.90;;;;;;5096935;28;20546;-41
2022/04/17 05:30:43;;;;;;;3.93;3.13;;;4.10;99.90;;;;;;5096839;28;20179;-40
2022/04/17 05:33:09;;;;;;;4.37;2.90;;;4.20;99.90;;;;;;5096885;28;20190;-42
2022/04/17 05:35:35;;;;;;;5.07;2.97;;;4.30;99.90;;;;;;5096629;28;20546;-41
2022/04/17 05:38:01;;;;;;;6.97;3.47;;;4.40;99.90;;;;;;5096912;28;20519;-41
2022/04/17 05:40:26;;;;;;;3.83;2.93;;;4.60;99.90;;;;;;5096579;28;20194;-41
2022/04/17 05:42:52;;;;;;;4.90;3.00;;;4.70;99.90;;;;;;5096531;28;20613;-41
2022/04/17 05:45:18;;;;;;;5.30;2.90;;;4.80;99.90;;;;;;5078343;28;20648;-41
2022/04/17 05:47:44;;;;;;;3.10;2.03;;;4.90;99.90;;;;;;5096519;28;20214;-41
2022/04/17 05:50:10;;;;;;;5.23;3.23;;;5.00;99.90;;;;;;5096265;28;20228;-39
2022/04/17 05:52:36;;;;;;;4.20;1.93;;;5.10;99.90;;;;;;5096229;28;20184;-40
2022/04/17 05:55:02;;;;;;;4.47;2.80;;;5.20;99.90;;;;;;5096292;28;20179;-41
2022/04/17 05:57:28;;;;;;;7.47;3.20;;;5.30;99.90;;;;;;5096252;28;20244;-42
2022/04/17 05:59:54;;;;;;;3.23;1.87;;;5.40;99.90;;;;;;5096380;28;20189;-42
2022/04/17 06:02:19;;;;;;;5.03;2.47;;;5.50;99.90;;;;;;5096344;28;20188;-42
2022/04/17 06:04:47;;;;;;;6.53;2.30;;;5.50;99.90;;;;;;5096283;28;20254;-40
2022/04/17 06:07:13;;;;;;;7.13;2.80;;;5.60;99.90;;;;;;5095822;28;20206;-40
2022/04/17 06:09:39;;;;;;;3.20;2.00;;;5.70;99.90;;;;;;5096597;28;20640;-41
2022/04/17 06:12:05;;;;;;;3.83;2.30;;;5.80;99.90;;;;;;5096540;28;20235;-43
2022/04/17 06:14:30;;;;;;;3.50;2.30;;;5.90;99.90;;;;;;5096167;28;20217;-41
2022/04/17 06:16:56;;;;;;;3.03;1.47;;;6.10;99.90;;;;;;5096015;28;20203;-41
2022/04/17 06:19:22;;;;;;;4.40;2.77;;;6.20;99.90;;;;;;5095873;28;20187;-43
2022/04/17 06:21:47;;;;;;;5.90;2.83;;;6.40;99.90;;;;;;5095815;28;20175;-42
2022/04/17 06:24:13;;;;;;;6.63;2.73;;;6.50;99.90;;;;;;5094624;28;20202;-42
2022/04/17 06:26:39;;;;;;;2.80;2.10;;;6.80;99.90;;;;;;5096323;28;20214;-42
2022/04/17 06:29:08;;;;;;;2.70;1.80;;;7.00;99.90;;;;;;5095010;28;20203;-43
2022/04/17 06:31:34;;;;;;;4.70;2.80;;;7.10;99.90;;;;;;5095448;28;20187;-42
2022/04/17 06:34:00;;;;;;;2.63;2.03;;;7.30;99.90;;;;;;5095853;28;20172;-43
2022/04/17 06:36:26;;;;;;;3.40;2.40;;;7.50;99.90;;;;;;5095553;28;20206;-40
2022/04/17 06:38:52;;;;;;;4.67;2.13;;;7.70;99.90;;;;;;5095465;28;20656;-42
2022/04/17 06:41:17;;;;;;;5.10;1.90;;;7.80;99.90;;;;;;5095753;28;20186;-42
2022/04/17 06:43:43;;;;;;;3.10;2.20;;;8.00;99.90;;;;;;5095663;28;20237;-45
2022/04/17 06:46:08;;;;;;;5.03;2.43;;;8.10;99.90;;;;;;5095621;28;20225;-41
2022/04/17 06:48:34;;;;;;;5.37;2.30;;;8.30;99.90;;;;;;5096197;28;20201;-41
2022/04/17 06:51:00;;;;;;;4.37;1.80;;;8.50;99.90;;;;;;5095613;28;20179;-41
2022/04/17 06:53:25;;;;;;;6.93;1.97;;;8.60;99.90;;;;;;5095522;28;20202;-42
2022/04/17 06:55:52;;;;;;;3.87;1.77;;;8.80;99.90;;;;;;5095090;28;20201;-43
2022/04/17 06:58:19;;;;;;;1.93;1.47;;;8.90;99.90;;;;;;5095207;28;20204;-44
2022/04/17 07:00:46;;;;;;;4.40;1.67;;;9.00;99.90;;;;;;5095353;28;20187;-42
2022/04/17 07:03:14;;;;;;;3.40;1.97;;;9.10;99.90;;;;;;5094893;28;20183;-42
2022/04/17 07:05:40;;;;;;;4.00;2.20;;;9.20;99.90;;;;;;5095162;28;20213;-44
2022/04/17 07:08:06;;;;;;;4.07;1.80;;;9.40;99.90;;;;;;5094654;28;20238;-41
2022/04/17 07:10:37;;;;;;;5.07;2.20;;;9.50;99.90;;;;;;5095248;28;20190;-41
2022/04/17 07:13:03;;;;;;;3.20;1.43;;;9.70;99.90;;;;;;5095024;28;20195;-42
2022/04/17 07:15:29;;;;;;;1.33;1.20;;;9.80;99.90;;;;;;5094970;28;20179;-43
2022/04/17 07:17:55;;;;;;;2.20;1.70;;;9.80;99.90;;;;;;5094477;28;20199;-39
2022/04/17 07:20:22;;;;;;;2.80;1.70;;;9.90;99.90;;;;;;5094845;28;20175;-41
2022/04/17 07:22:49;;;;;;;2.67;1.93;;;10.00;99.90;;;;;;5095427;28;20179;-42
2022/04/17 07:25:15;;;;;;;3.67;2.33;;;10.10;99.90;;;;;;5094517;28;20178;-42
2022/04/17 07:27:46;;;;;;;3.73;1.70;;;10.20;99.90;;;;;;5094705;28;20208;-42
2022/04/17 07:30:26;;;;;;;2.70;1.90;;;10.30;99.90;;;;;;5094750;28;20215;-43
2022/04/17 07:32:57;;;;;;;2.57;1.80;;;10.50;99.90;;;;;;5094926;28;20163;-41
2022/04/17 07:35:24;;;;;;;3.23;2.07;;;10.50;99.90;;;;;;5094570;28;20191;-42
2022/04/17 07:37:52;;;;;;;3.70;1.90;;;10.60;99.90;;;;;;5094213;28;20197;-41
2022/04/17 07:40:21;;;;;;;2.17;1.73;;;10.70;99.90;;;;;;5094265;28;20174;-44
2022/04/17 07:42:48;;;;;;;2.17;1.60;;;10.70;99.90;;;;;;5094525;28;20189;-43
2022/04/17 07:45:15;;;;;;;2.00;1.60;;;10.90;99.90;;;;;;5094417;28;20185;-42
2022/04/17 07:47:41;;;;;;;3.33;1.70;;;10.90;99.90;;;;;;5093993;28;20209;-42
2022/04/17 07:50:09;;;;;;;2.97;1.80;;;11.00;99.90;;;;;;5094087;28;20192;-41
2022/04/17 07:52:35;;;;;;;2.80;1.90;;;11.10;99.90;;;;;;5094598;28;20260;-45
2022/04/17 07:55:04;;;;;;;1.77;1.60;;;11.20;99.90;;;;;;5093994;28;20186;-41
2022/04/17 08:00:14;;;;;;;2.80;1.70;;;11.40;99.90;;;;;;5094576;28;20522;-44
2022/04/17 08:02:50;;;;;;;1.53;1.33;;;11.50;99.90;;;;;;5075798;28;20183;-42
2022/04/17 08:05:15;;;;;;;2.90;1.83;;;11.60;99.90;;;;;;5094154;28;20158;-42
2022/04/17 08:07:41;;;;;;;2.23;1.57;;;11.80;99.90;;;;;;5093582;28;20594;-43
2022/04/17 08:10:07;;;;;;;2.90;1.50;;;11.80;99.90;;;;;;5075615;28;20175;-43
2022/04/17 08:12:33;;;;;;;2.27;1.90;;;12.00;99.90;;;;;;5093983;28;20178;-42
2022/04/17 08:14:58;;;;;;;3.97;1.70;;;12.10;99.90;;;;;;5093715;28;20175;-44
2022/04/17 08:17:24;;;;;;;1.43;1.33;;;12.20;99.90;;;;;;5093572;28;20240;-44
2022/04/17 08:19:49;;;;;;;3.13;1.67;;;12.30;99.90;;;;;;5093702;28;20190;-44
2022/04/17 08:22:15;;;;;;;2.07;1.87;;;12.30;99.90;;;;;;5093629;28;20224;-44
2022/04/17 08:24:41;;;;;;;2.93;1.90;;;12.40;99.90;;;;;;5093717;28;20696;-43
2022/04/17 08:27:06;;;;;;;3.97;1.60;;;12.50;99.90;;;;;;5093838;28;20199;-44
2022/04/17 08:29:32;;;;;;;1.50;1.40;;;12.50;99.90;;;;;;5093768;28;20598;-45
2022/04/17 08:31:58;;;;;;;2.17;1.70;;;12.50;99.90;;;;;;5093761;28;20206;-43
2022/04/17 08:34:24;;;;;;;2.00;1.67;;;12.70;99.90;;;;;;5093952;28;20550;-45
2022/04/17 08:36:49;;;;;;;1.67;1.47;;;12.70;99.90;;;;;;5093761;28;20198;-44
2022/04/17 08:39:16;;;;;;;2.03;1.47;;;12.80;99.90;;;;;;5093467;28;20193;-43
2022/04/17 08:41:44;;;;;;;2.13;1.50;;;12.90;99.90;;;;;;5093728;28;20156;-43
2022/04/17 08:44:10;;;;;;;1.40;1.30;;;13.00;99.90;;;;;;5093440;28;20627;-44
2022/04/17 08:46:36;;;;;;;2.43;1.50;;;13.10;99.90;;;;;;5093608;28;20209;-46
2022/04/17 08:49:02;;;;;;;2.43;1.70;;;13.20;99.90;;;;;;5093306;28;20202;-44
2022/04/17 08:51:28;;;;;;;1.87;1.40;;;13.30;99.90;;;;;;5093751;28;20186;-43
2022/04/17 08:53:56;;;;;;;2.53;1.50;;;13.40;99.90;;;;;;5096572;28;20240;-43
2022/04/17 08:56:21;;;;;;;2.73;1.60;;;13.40;99.90;;;;;;5097992;28;20687;-44
2022/04/17 08:58:47;;;;;;;2.37;1.67;;;13.60;99.90;;;;;;5097830;28;20178;-42
2022/04/17 09:01:18;;;;;;;2.80;1.40;;;13.60;99.90;;;;;;5097828;28;20566;-44
2022/04/17 09:03:47;;;;;;;2.93;1.87;;;13.70;99.90;;;;;;5097498;28;20159;-44
2022/04/17 09:06:17;;;;;;;2.83;1.70;;;13.70;99.90;;;;;;5097579;28;20233;-44
2022/04/17 09:08:59;;;;;;;3.07;1.50;;;13.80;99.90;;;;;;5097353;28;20202;-45
2022/04/17 09:11:29;;;;;;;3.60;1.83;;;14.00;99.90;;;;;;5097202;28;20511;-44
2022/04/17 09:13:56;;;;;;;2.53;1.37;;;14.10;99.90;;;;;;5097513;28;20606;-43
2022/04/17 09:16:27;;;;;;;2.57;1.50;;;14.20;99.90;;;;;;5097571;28;20606;-44
2022/04/17 09:18:52;;;;;;;2.87;1.77;;;14.30;99.90;;;;;;5097064;28;20175;-44
2022/04/17 09:21:34;;;;;;;1.57;1.20;;;14.40;99.90;;;;;;5097117;28;20232;-45
2022/04/17 09:24:20;;;;;;;1.97;1.70;;;14.40;99.90;;;;;;5097182;28;20171;-44
2022/04/17 09:26:50;;;;;;;3.00;1.43;;;14.60;99.90;;;;;;5097144;28;20195;-45
2022/04/17 09:29:20;;;;;;;4.77;1.60;;;14.70;99.90;;;;;;5096792;28;20797;-43
2022/04/17 09:31:47;;;;;;;2.13;1.40;;;14.70;99.90;;;;;;5097493;28;20183;-45
2022/04/17 09:34:14;;;;;;;3.07;1.60;;;14.80;99.90;;;;;;5096955;28;20183;-44
2022/04/17 09:36:39;;;;;;;1.37;1.27;;;14.90;99.90;;;;;;5096678;28;20191;-43
2022/04/17 09:39:18;;;;;;;4.57;1.60;;;14.90;99.90;;;;;;5096631;28;20243;-43
2022/04/17 09:41:55;;;;;;;2.77;1.37;;;15.00;99.90;;;;;;5096613;28;20182;-44
2022/04/17 09:44:47;;;;;;;1.63;1.20;;;15.10;99.90;;;;;;5096815;28;20175;-45
2022/04/17 09:47:16;;;;;;;2.00;1.60;;;15.20;99.90;;;;;;5096548;28;20202;-44
2022/04/17 09:49:54;;;;;;;1.30;1.10;;;15.20;99.90;;;;;;5096569;28;20203;-44
2022/04/17 09:52:22;;;;;;;2.03;1.37;;;15.30;99.90;;;;;;5096595;28;20175;-45
2022/04/17 09:54:48;;;;;;;5.00;1.20;;;15.30;99.90;;;;;;5096587;28;20182;-46
2022/04/17 09:57:30;;;;;;;2.47;1.50;;;15.50;99.90;;;;;;5096784;28;20198;-45
2022/04/17 10:00:16;;;;;;;2.43;1.33;;;15.50;99.90;;;;;;5096568;28;20154;-43
2022/04/17 10:02:44;;;;;;;1.20;1.10;;;15.60;99.90;;;;;;5096398;28;20683;-45
2022/04/17 10:05:15;;;;;;;2.00;1.20;;;15.60;99.90;;;;;;5095943;28;20644;-47
2022/04/17 10:07:42;;;;;;;2.13;1.47;;;15.70;99.90;;;;;;5095932;28;20210;-44
2022/04/17 10:10:10;;;;;;;4.03;1.60;;;15.70;99.90;;;;;;5096307;28;20556;-44
2022/04/17 10:12:38;;;;;;;3.83;1.17;;;15.80;99.90;;;;;;5095960;28;20167;-45
2022/04/17 10:15:06;;;;;;;2.93;1.43;;;15.80;99.90;;;;;;5095981;28;20175;-46
2022/04/17 10:17:33;;;;;;;3.00;1.10;;;15.90;99.90;;;;;;5096039;28;20199;-44
2022/04/17 10:20:06;;;;;;;1.60;1.20;;;15.90;99.90;;;;;;5094606;28;20316;-46
2022/04/17 10:22:40;;;;;;;1.67;1.30;;;16.10;99.90;;;;;;5095813;28;20185;-45
2022/04/17 10:25:08;;;;;;;5.00;1.87;;;16.20;99.90;;;;;;5096117;28;20183;-44
2022/04/17 10:27:43;;;;;;;5.70;1.90;;;16.30;99.90;;;;;;5095572;28;20209;-46
2022/04/17 10:30:18;;;;;;;3.23;1.20;;;16.40;99.90;;;;;;5077885;28;20171;-46
2022/04/17 10:33:24;;;;;;;4.13;1.40;;;16.50;99.90;;;;;;5077491;28;20179;-44
2022/04/17 10:36:02;;;;;;;3.57;1.50;;;16.60;99.90;;;;;;5095786;28;20640;-45
2022/04/17 10:39:02;;;;;;;1.90;1.40;;;16.60;99.90;;;;;;5095719;28;20163;-45
2022/04/17 10:41:28;;;;;;;2.97;1.47;;;16.70;99.90;;;;;;5082838;28;20195;-45
2022/04/17 10:43:58;;;;;;;1.80;1.50;;;16.80;99.90;;;;;;5095644;28;20269;-45
2022/04/17 10:46:24;;;;;;;2.23;1.40;;;16.80;99.90;;;;;;5095640;28;20205;-46
2022/04/17 10:48:55;;;;;;;2.13;1.37;;;16.90;99.90;;;;;;5095806;28;20197;-45
2022/04/17 10:51:27;;;;;;;3.57;1.50;;;16.90;99.90;;;;;;5095233;28;20162;-46
2022/04/17 10:54:05;;;;;;;3.03;1.50;;;17.00;99.90;;;;;;5095471;28;20530;-46
2022/04/17 10:56:39;;;;;;;2.20;1.20;;;17.10;99.90;;;;;;5095347;28;20202;-46
2022/04/17 10:59:15;;;;;;;3.73;1.73;;;17.20;99.90;;;;;;5095139;28;20174;-46
2022/04/17 11:01:44;;;;;;;2.57;1.50;;;17.20;99.90;;;;;;5095286;28;20171;-46
2022/04/17 11:04:22;;;;;;;3.87;1.57;;;17.20;99.90;;;;;;5095005;28;20269;-45
2022/04/17 11:07:12;;;;;;;3.13;1.57;;;17.30;99.90;;;;;;5094743;28;20217;-45
2022/04/17 11:09:44;;;;;;;3.93;1.40;;;17.40;99.90;;;;;;5084033;28;20245;-46
2022/04/17 11:12:19;;;;;;;1.37;1.27;;;17.50;99.90;;;;;;5094871;28;20174;-47
2022/04/17 11:15:02;;;;;;;1.60;1.40;;;17.60;99.90;;;;;;5095364;28;20162;-46
2022/04/17 11:17:32;;;;;;;4.30;1.50;;;17.60;99.90;;;;;;5094618;28;20239;-45
2022/04/17 11:19:59;;;;;;;3.93;1.23;;;17.70;99.90;;;;;;5095194;28;20191;-46
2022/04/17 11:22:34;;;;;;;3.13;1.30;;;17.80;99.90;;;;;;5094912;28;20181;-45
2022/04/17 11:25:05;;;;;;;2.67;1.20;;;17.90;99.90;;;;;;5094701;28;20194;-44
2022/04/17 11:27:52;;;;;;;1.60;1.30;;;17.90;99.90;;;;;;5094439;28;20293;-46
2022/04/17 11:30:17;;;;;;;5.53;1.70;;;17.90;99.90;;;;;;5094786;28;20628;-46
2022/04/17 11:32:43;;;;;;;1.70;1.40;;;18.00;99.90;;;;;;5094434;28;20169;-46
2022/04/17 11:35:10;;;;;;;1.40;1.30;;;18.00;99.90;;;;;;5094704;28;20159;-45
2022/04/17 11:37:36;;;;;;;2.13;1.50;;;18.10;99.90;;;;;;5094539;28;20668;-47
2022/04/17 11:40:16;;;;;;;31.67;8.10;;;18.20;99.90;;;;;;5094271;28;20580;-46
2022/04/17 11:42:53;;;;;;;1.83;1.40;;;18.30;99.90;;;;;;5095130;28;20163;-45
2022/04/17 11:45:25;;;;;;;5.23;1.70;;;18.30;99.90;;;;;;5094202;28;20151;-45
2022/04/17 11:47:51;;;;;;;2.13;1.53;;;18.40;99.90;;;;;;5094239;28;20214;-45
2022/04/17 11:50:26;;;;;;;2.07;1.40;;;18.50;99.90;;;;;;5094372;28;20549;-46
2022/04/17 11:52:52;;;;;;;3.50;1.90;;;18.50;99.90;;;;;;5094376;28;20166;-45
2022/04/17 11:55:48;;;;;;;1.90;1.60;;;18.50;99.90;;;;;;5094026;28;20267;-45
2022/04/17 11:58:27;;;;;;;2.10;1.37;;;18.60;99.10;;;;;;5091113;28;20194;-46
2022/04/17 12:00:56;;;;;;;1.80;1.37;;;18.60;99.90;;;;;;5094260;28;20171;-46
2022/04/17 12:03:22;;;;;;;2.20;1.57;;;18.80;99.90;;;;;;5094502;28;20220;-46
2022/04/17 12:05:47;;;;;;;2.47;1.87;;;18.90;98.80;;;;;;5093983;28;20183;-46
2022/04/17 12:08:13;;;;;;;5.50;1.70;;;19.00;99.90;;;;;;5093732;28;20219;-46
2022/04/17 12:10:43;;;;;;;3.60;1.90;;;19.00;99.90;;;;;;5094394;28;20240;-45
2022/04/17 12:13:20;;;;;;;2.10;1.67;;;19.10;99.90;;;;;;5094625;28;20577;-46
2022/04/17 12:15:50;;;;;;;2.07;1.87;;;19.10;99.90;;;;;;5093676;28;20171;-45
2022/04/17 12:18:16;;;;;;;4.37;2.10;;;19.20;99.90;;;;;;5093878;28;20603;-46
2022/04/17 12:20:42;;;;;;;2.93;2.03;;;19.30;99.90;;;;;;5093634;28;20170;-45
2022/04/17 12:23:08;;;;;;;2.17;1.97;;;19.30;99.90;;;;;;5093518;28;20232;-47
2022/04/17 12:25:33;;;;;;;2.43;1.53;;;19.40;99.90;;;;;;5093496;28;20206;-47
2022/04/17 12:28:00;;;;;;;1.60;1.50;;;19.40;99.90;;;;;;5092561;28;20282;-47
2022/04/17 12:30:27;;;;;;;1.93;1.50;;;19.50;98.20;;;;;;5075811;28;20175;-46
2022/04/17 12:32:59;;;;;;;3.57;1.87;;;19.50;99.00;;;;;;5093464;28;20213;-46
2022/04/17 12:35:29;;;;;;;1.93;1.60;;;19.60;99.90;;;;;;5094310;28;20197;-47
2022/04/17 12:38:06;;;;;;;2.47;1.63;;;19.60;98.70;;;;;;5093659;28;20553;-46
2022/04/17 12:40:42;;;;;;;1.60;1.50;;;19.70;99.90;;;;;;5093667;28;20175;-47
2022/04/17 12:43:21;;;;;;;2.10;1.73;;;19.70;99.90;;;;;;5093702;28;20155;-46
2022/04/17 12:46:04;;;;;;;1.90;1.43;;;19.80;96.80;;;;;;5093240;28;20179;-45
2022/04/17 12:48:35;;;;;;;1.83;1.70;;;19.80;98.70;;;;;;5093585;28;20237;-46
2022/04/17 12:51:09;;;;;;;1.63;1.20;;;19.90;99.90;;;;;;5093671;28;20159;-46
2022/04/17 12:53:39;;;;;;;3.03;1.90;;;20.00;99.90;;;;;;5093505;28;20175;-47
2022/04/17 12:56:06;;;;;;;2.77;2.40;;;20.10;99.90;;;;;;5093476;28;20195;-46
2022/04/17 12:58:55;;;;;;;2.10;1.90;;;20.10;99.90;;;;;;5093460;28;20193;-46
2022/04/17 13:01:29;;;;;;;1.50;1.40;;;20.10;99.90;;;;;;5093644;28;20228;-46
2022/04/17 13:04:10;;;;;;;1.90;1.53;;;20.20;98.80;;;;;;5093642;28;20178;-45
2022/04/17 13:06:36;;;;;;;1.30;1.20;;;20.30;99.00;;;;;;5093082;28;20197;-46
2022/04/17 13:09:18;;;;;;;2.27;1.33;;;20.30;98.20;;;;;;5093359;28;20191;-46
2022/04/17 13:11:49;;;;;;;1.20;1.10;;;20.30;99.90;;;;;;5093306;28;20179;-46